createdAt,value
2022-08-03T00:01:45.266Z,5.68
2022-08-03T00:04:13.364Z,5.13
2022-08-03T00:06:41.336Z,6.82
2022-08-03T00:09:11.445Z,4.72
2022-08-03T00:11:39.529Z,4.45
2022-08-03T00:14:08.764Z,3.65
2022-08-03T00:16:36.738Z,5.13
2022-08-03T00:19:04.950Z,4.65
2022-08-03T00:21:32.867Z,6.00
2022-08-03T00:24:00.792Z,4.72
2022-08-03T00:26:30.546Z,4.55
2022-08-03T00:28:58.542Z,5.78
2022-08-03T00:31:40.012Z,4.90
2022-08-03T00:34:14.444Z,5.95
2022-08-03T00:36:42.341Z,6.78
2022-08-03T00:39:10.502Z,3.05
2022-08-03T00:41:39.788Z,3.28
2022-08-03T00:44:07.728Z,3.83
2022-08-03T00:46:35.608Z,2.92
2022-08-03T00:49:03.872Z,3.77
2022-08-03T00:51:32.756Z,4.88
2022-08-03T00:54:00.735Z,4.25
2022-08-03T00:56:28.767Z,3.83
2022-08-03T00:58:58.829Z,4.85
2022-08-03T01:01:26.800Z,2.70
2022-08-03T01:04:00.427Z,2.30
2022-08-03T01:06:37.255Z,7.65
2022-08-03T01:09:19.992Z,9.38
2022-08-03T01:12:01.069Z,4.10
2022-08-03T01:14:35.386Z,2.85
2022-08-03T01:17:10.738Z,3.75
2022-08-03T01:19:50.130Z,2.42
2022-08-03T01:22:44.972Z,3.80
2022-08-03T01:25:26.027Z,3.05
2022-08-03T01:28:02.800Z,4.22
2022-08-03T01:30:34.517Z,3.08
2022-08-03T01:33:06.670Z,3.05
2022-08-03T01:35:40.253Z,3.78
2022-08-03T01:38:13.337Z,4.03
2022-08-03T01:40:44.460Z,5.90
2022-08-03T01:44:27.891Z,6.10
2022-08-03T01:46:06.435Z,3.63
2022-08-03T01:48:36.448Z,4.03
2022-08-03T01:51:04.772Z,3.88
2022-08-03T01:53:34.646Z,3.67
2022-08-03T01:56:04.731Z,4.57
2022-08-03T01:58:35.947Z,4.82
2022-08-03T02:01:06.903Z,4.88
2022-08-03T02:03:38.048Z,3.30
2022-08-03T02:06:59.814Z,2.58
2022-08-03T02:09:16.027Z,3.47
2022-08-03T02:11:44.686Z,5.75
2022-08-03T02:14:12.916Z,3.30
2022-08-03T02:16:42.439Z,3.70
2022-08-03T02:19:12.195Z,3.78
2022-08-03T02:21:57.430Z,5.65
2022-08-03T02:24:29.237Z,3.95
2022-08-03T02:26:58.895Z,4.18
2022-08-03T02:29:40.353Z,6.78
2022-08-03T02:32:13.464Z,4.40
2022-08-03T02:34:43.154Z,6.20
2022-08-03T02:37:12.757Z,4.50
2022-08-03T02:39:42.969Z,2.87
2022-08-03T02:42:13.039Z,8.07
2022-08-03T02:44:47.597Z,4.30
2022-08-03T02:47:21.033Z,7.93
2022-08-03T02:49:52.125Z,4.55
2022-08-03T02:52:23.364Z,4.13
2022-08-03T02:54:55.921Z,4.97
2022-08-03T02:57:25.945Z,4.20
2022-08-03T02:59:55.210Z,5.55
2022-08-03T03:02:26.080Z,4.72
2022-08-03T03:05:50.792Z,5.03
2022-08-03T03:07:51.351Z,6.93
2022-08-03T03:10:21.215Z,4.33
2022-08-03T03:12:51.186Z,3.70
2022-08-03T03:15:19.776Z,3.63
2022-08-03T03:17:50.475Z,6.63
2022-08-03T03:20:28.934Z,7.03
2022-08-03T03:23:00.704Z,5.22
2022-08-03T03:25:29.871Z,4.93
2022-08-03T03:27:58.193Z,4.32
2022-08-03T03:30:26.801Z,6.30
2022-08-03T03:32:56.529Z,4.15
2022-08-03T03:35:24.546Z,2.65
2022-08-03T03:37:53.557Z,3.10
2022-08-03T03:40:21.940Z,5.30
2022-08-03T03:42:51.039Z,5.07
2022-08-03T03:45:19.890Z,4.55
2022-08-03T03:47:48.098Z,5.60
2022-08-03T03:50:20.675Z,6.37
2022-08-03T03:52:48.639Z,4.32
2022-08-03T03:55:19.662Z,8.32
2022-08-03T03:57:47.620Z,4.22
2022-08-03T04:00:17.624Z,3.73
2022-08-03T04:02:45.714Z,3.88
2022-08-03T04:05:31.167Z,5.90
2022-08-03T04:08:20.002Z,6.10
2022-08-03T04:11:01.508Z,4.63
2022-08-03T04:13:34.471Z,5.43
2022-08-03T04:16:03.066Z,4.00
2022-08-03T04:18:35.140Z,5.93
2022-08-03T04:21:05.255Z,6.67
2022-08-03T04:23:36.725Z,6.65
2022-08-03T04:26:09.573Z,6.27
2022-08-03T04:28:40.587Z,6.73
2022-08-03T04:31:09.131Z,3.30
2022-08-03T04:33:39.488Z,4.13
2022-08-03T04:36:09.811Z,7.30
2022-08-03T04:38:47.794Z,6.03
2022-08-03T04:41:16.110Z,4.23
2022-08-03T04:43:44.625Z,4.10
2022-08-03T04:46:13.315Z,9.07
2022-08-03T04:48:44.692Z,7.75
2022-08-03T04:51:14.275Z,7.43
2022-08-03T04:53:44.258Z,7.40
2022-08-03T04:56:12.331Z,10.30
2022-08-03T04:58:40.325Z,9.50
2022-08-03T05:01:08.638Z,7.53
2022-08-03T05:03:36.678Z,7.40
2022-08-03T05:06:09.606Z,8.67
2022-08-03T05:08:45.973Z,9.18
2022-08-03T05:11:16.208Z,8.15
2022-08-03T05:13:44.436Z,10.82
2022-08-03T05:16:13.834Z,8.07
2022-08-03T05:18:41.910Z,8.93
2022-08-03T05:21:10.647Z,10.77
2022-08-03T05:23:38.574Z,8.65
2022-08-03T05:26:06.483Z,6.90
2022-08-03T05:28:35.788Z,10.37
2022-08-03T05:31:03.718Z,7.82
2022-08-03T05:33:31.702Z,8.90
2022-08-03T05:36:02.985Z,8.30
2022-08-03T05:38:34.193Z,6.53
2022-08-03T05:41:21.374Z,9.80
2022-08-03T05:43:53.750Z,7.15
2022-08-03T05:46:22.471Z,7.33
2022-08-03T05:48:50.677Z,8.27
2022-08-03T05:51:18.754Z,8.73
2022-08-03T05:53:47.013Z,11.40
2022-08-03T05:56:16.593Z,11.23
2022-08-03T05:58:46.432Z,12.40
2022-08-03T06:01:16.309Z,9.80
2022-08-03T06:03:44.362Z,15.15
2022-08-03T06:06:12.365Z,10.77
2022-08-03T06:08:40.579Z,8.10
2022-08-03T06:11:08.761Z,11.30
2022-08-03T06:13:36.870Z,10.00
2022-08-03T06:16:05.237Z,13.45
2022-08-03T06:18:34.745Z,14.10
2022-08-03T06:21:14.594Z,16.57
2022-08-03T06:23:53.226Z,17.23
2022-08-03T06:26:24.417Z,16.33
2022-08-03T06:28:54.140Z,17.58
2022-08-03T06:31:23.928Z,14.38
2022-08-03T06:34:34.351Z,10.85
2022-08-03T06:36:41.347Z,10.83
2022-08-03T06:39:09.417Z,13.18
2022-08-03T06:41:37.992Z,9.82
2022-08-03T06:44:12.750Z,8.27
2022-08-03T06:46:41.102Z,9.40
2022-08-03T06:49:10.539Z,13.83
2022-08-03T06:52:05.915Z,7.47
2022-08-03T06:54:26.555Z,9.02
2022-08-03T06:56:55.491Z,8.77
2022-08-03T07:00:10.410Z,12.63
2022-08-03T07:02:11.587Z,10.52
2022-08-03T07:04:40.897Z,10.63
2022-08-03T07:07:08.834Z,13.60
2022-08-03T07:09:37.043Z,13.50
2022-08-03T07:12:06.551Z,13.27
2022-08-03T07:14:34.444Z,11.43
2022-08-03T07:17:04.639Z,10.98
2022-08-03T07:19:41.145Z,10.37
2022-08-03T07:22:09.424Z,10.63
2022-08-03T07:24:37.352Z,9.73
2022-08-03T07:27:05.541Z,10.57
2022-08-03T07:29:34.595Z,11.18
2022-08-03T07:32:03.259Z,12.95
2022-08-03T07:34:31.274Z,11.65
2022-08-03T07:37:00.608Z,12.13
2022-08-03T07:39:28.571Z,7.18
2022-08-03T07:41:56.551Z,12.18
2022-08-03T07:44:24.497Z,14.70
2022-08-03T07:46:52.380Z,7.85
2022-08-03T07:49:20.399Z,12.45
2022-08-03T07:52:09.091Z,14.73
2022-08-03T07:54:38.386Z,10.27
2022-08-03T07:57:06.331Z,12.30
2022-08-03T07:59:57.131Z,17.65
2022-08-03T08:02:23.218Z,11.68
2022-08-03T08:04:51.143Z,7.90
2022-08-03T08:07:19.174Z,15.35
2022-08-03T08:09:50.029Z,11.18
2022-08-03T08:12:18.494Z,13.80
2022-08-03T08:14:46.789Z,9.80
2022-08-03T08:17:14.826Z,10.27
2022-08-03T08:19:51.269Z,14.68
2022-08-03T08:22:29.930Z,10.73
2022-08-03T08:25:01.359Z,11.90
2022-08-03T08:28:22.541Z,10.38
2022-08-03T08:30:19.847Z,9.95
2022-08-03T08:32:48.282Z,13.50
2022-08-03T08:35:17.778Z,12.55
2022-08-03T08:37:51.154Z,21.58
2022-08-03T08:40:22.850Z,11.70
2022-08-03T08:42:58.290Z,11.50
2022-08-03T08:45:27.576Z,15.02
2022-08-03T08:48:01.114Z,12.40
2022-08-03T08:50:31.292Z,15.20
2022-08-03T08:53:03.437Z,8.80
2022-08-03T08:55:58.949Z,11.15
2022-08-03T08:58:23.947Z,10.95
2022-08-03T09:00:52.281Z,11.27
2022-08-03T09:03:22.585Z,11.95
2022-08-03T09:05:57.904Z,11.65
2022-08-03T09:08:26.000Z,11.25
2022-08-03T09:10:55.253Z,10.77
2022-08-03T09:13:23.635Z,7.82
2022-08-03T09:16:11.066Z,13.55
2022-08-03T09:18:39.663Z,11.45
2022-08-03T09:21:37.269Z,15.32
2022-08-03T09:24:12.975Z,13.18
2022-08-03T09:26:53.588Z,10.00
2022-08-03T09:29:22.155Z,10.10
2022-08-03T09:31:50.064Z,14.80
2022-08-03T09:34:19.569Z,10.43
2022-08-03T09:36:48.955Z,9.40
2022-08-03T09:39:18.353Z,10.48
2022-08-03T09:41:49.192Z,10.40
2022-08-03T09:44:24.801Z,14.65
2022-08-03T09:46:55.873Z,11.73
2022-08-03T09:49:24.548Z,10.90
2022-08-03T09:52:39.240Z,10.60
2022-08-03T09:54:42.593Z,10.23
2022-08-03T09:57:22.886Z,11.82
2022-08-03T09:59:54.838Z,15.38
2022-08-03T10:02:31.188Z,10.52
2022-08-03T10:04:59.100Z,12.88
2022-08-03T10:07:27.343Z,15.05
2022-08-03T10:09:57.482Z,12.05
2022-08-03T10:12:27.650Z,10.40
2022-08-03T10:14:55.990Z,14.13
2022-08-03T10:17:24.374Z,12.15
2022-08-03T10:19:52.335Z,10.82
2022-08-03T10:22:23.891Z,12.38
2022-08-03T10:24:56.706Z,13.30
2022-08-03T10:27:32.675Z,11.68
2022-08-03T10:30:04.858Z,16.90
2022-08-03T10:32:39.835Z,11.05
2022-08-03T10:35:19.126Z,8.02
2022-08-03T10:37:56.730Z,9.10
2022-08-03T10:40:46.819Z,12.95
2022-08-03T10:43:22.843Z,12.30
2022-08-03T10:45:51.775Z,13.00
2022-08-03T10:48:20.643Z,13.85
2022-08-03T10:50:50.564Z,10.63
2022-08-03T10:53:36.430Z,12.40
2022-08-03T10:56:35.677Z,14.25
2022-08-03T10:59:12.383Z,11.88
2022-08-03T11:02:00.355Z,10.23
2022-08-03T11:04:30.137Z,11.07
2022-08-03T11:07:21.551Z,15.95
2022-08-03T11:09:51.058Z,11.43
2022-08-03T11:12:30.802Z,10.05
2022-08-03T11:15:02.795Z,12.50
2022-08-03T11:17:31.256Z,12.75
2022-08-03T11:19:59.215Z,15.60
2022-08-03T11:22:47.557Z,12.60
2022-08-03T11:25:54.156Z,13.57
2022-08-03T11:28:26.409Z,14.68
2022-08-03T11:30:54.919Z,12.93
2022-08-03T11:33:40.829Z,10.05
2022-08-03T11:36:08.880Z,7.85
2022-08-03T11:38:36.835Z,10.38
2022-08-03T11:41:06.116Z,12.05
2022-08-03T11:43:46.409Z,11.85
2022-08-03T11:46:29.443Z,15.40
2022-08-03T11:49:10.576Z,12.20
2022-08-03T11:51:40.343Z,9.55
2022-08-03T11:54:08.931Z,10.68
2022-08-03T11:56:48.718Z,11.60
2022-08-03T11:59:21.675Z,10.82
2022-08-03T12:01:50.615Z,9.43
2022-08-03T12:04:18.643Z,9.60
2022-08-03T12:07:00.249Z,11.23
2022-08-03T12:09:28.231Z,9.45
2022-08-03T12:12:00.214Z,9.35
2022-08-03T12:14:50.503Z,10.82
2022-08-03T12:17:18.578Z,12.63
2022-08-03T12:19:46.826Z,12.98
2022-08-03T12:22:15.986Z,13.75
2022-08-03T12:24:46.717Z,11.85
2022-08-03T12:27:24.214Z,6.78
2022-08-03T12:29:58.432Z,10.65
2022-08-03T12:32:27.577Z,6.15
2022-08-03T12:35:00.033Z,12.05
2022-08-03T12:37:28.781Z,9.60
2022-08-03T12:40:02.272Z,13.07
2022-08-03T12:42:37.610Z,8.65
2022-08-03T12:45:24.308Z,7.00
2022-08-03T12:47:54.134Z,9.85
2022-08-03T12:50:31.575Z,8.10
2022-08-03T12:53:00.489Z,9.10
2022-08-03T12:55:56.423Z,10.45
2022-08-03T12:58:34.395Z,10.77
2022-08-03T13:01:05.022Z,10.82
2022-08-03T13:03:43.434Z,6.30
2022-08-03T13:06:14.753Z,9.52
2022-08-03T13:08:43.367Z,8.20
2022-08-03T13:11:47.614Z,10.00
2022-08-03T13:14:20.082Z,7.15
2022-08-03T13:16:50.237Z,10.07
2022-08-03T13:19:18.246Z,5.13
2022-08-03T13:21:53.674Z,7.97
2022-08-03T13:24:33.583Z,10.98
2022-08-03T13:28:01.130Z,8.23
2022-08-03T13:29:54.261Z,5.00
2022-08-03T13:32:23.020Z,8.90
2022-08-03T13:34:50.961Z,8.18
2022-08-03T13:37:19.029Z,6.15
2022-08-03T13:39:57.520Z,7.43
2022-08-03T13:42:28.992Z,4.50
2022-08-03T13:44:58.589Z,7.82
2022-08-03T13:47:26.835Z,5.10
2022-08-03T13:50:00.734Z,10.90
2022-08-03T13:52:31.437Z,7.97
2022-08-03T13:54:59.923Z,6.25
2022-08-03T13:58:02.724Z,6.53
2022-08-03T14:00:27.750Z,4.30
2022-08-03T14:03:16.107Z,7.93
2022-08-03T14:05:45.108Z,9.25
2022-08-03T14:08:13.372Z,4.65
2022-08-03T14:10:43.965Z,4.53
2022-08-03T14:13:16.796Z,9.60
2022-08-03T14:15:50.029Z,6.53
2022-08-03T14:18:27.812Z,5.43
2022-08-03T14:21:05.071Z,9.55
2022-08-03T14:23:34.205Z,8.52
2022-08-03T14:26:02.311Z,4.38
2022-08-03T14:28:30.355Z,6.03
2022-08-03T14:30:59.687Z,4.03
2022-08-03T14:33:28.407Z,3.60
2022-08-03T14:35:56.641Z,6.97
2022-08-03T14:38:25.734Z,6.60
2022-08-03T14:40:54.136Z,4.22
2022-08-03T14:43:22.229Z,5.32
2022-08-03T14:45:52.409Z,7.38
2022-08-03T14:50:29.294Z,7.95
2022-08-03T14:51:11.690Z,4.75
2022-08-03T14:53:39.630Z,4.20
2022-08-03T14:56:10.370Z,3.25
2022-08-03T14:58:39.142Z,4.72
2022-08-03T15:02:02.721Z,2.53
2022-08-03T15:03:57.715Z,6.75
2022-08-03T15:06:25.975Z,4.22
2022-08-03T15:09:13.845Z,3.95
2022-08-03T15:11:42.226Z,9.77
2022-08-03T15:14:10.344Z,3.97
2022-08-03T15:16:41.690Z,4.97
2022-08-03T15:20:03.359Z,5.80
2022-08-03T15:21:58.865Z,1.77
2022-08-03T15:24:29.058Z,4.75
2022-08-03T15:26:57.143Z,3.85
2022-08-03T15:30:05.207Z,5.45
2022-08-03T15:32:12.916Z,6.13
2022-08-03T15:34:42.223Z,5.38
2022-08-03T15:37:18.779Z,3.42
2022-08-03T15:39:59.125Z,6.28
2022-08-03T15:42:28.471Z,4.75
2022-08-03T15:44:56.493Z,3.90
2022-08-03T15:47:24.461Z,4.20
2022-08-03T15:49:53.921Z,3.80
2022-08-03T15:52:23.615Z,2.95
2022-08-03T15:54:51.711Z,3.85
2022-08-03T15:57:19.882Z,1.35
2022-08-03T15:59:48.044Z,1.92
2022-08-03T16:02:16.424Z,3.28
2022-08-03T16:04:44.498Z,2.65
2022-08-03T16:07:15.703Z,2.90
2022-08-03T16:09:44.332Z,7.65
2022-08-03T16:12:15.475Z,2.40
2022-08-03T16:14:52.488Z,2.75
2022-08-03T16:17:21.939Z,6.63
2022-08-03T16:19:50.302Z,3.80
2022-08-03T16:22:19.893Z,6.30
2022-08-03T16:24:51.079Z,3.88
2022-08-03T16:28:00.360Z,7.60
2022-08-03T16:30:10.667Z,4.82
2022-08-03T16:32:39.858Z,4.93
2022-08-03T16:35:08.737Z,3.90
2022-08-03T16:37:39.209Z,2.50
2022-08-03T16:40:17.291Z,2.75
2022-08-03T16:42:48.316Z,3.65
2022-08-03T16:45:16.805Z,3.92
2022-08-03T16:47:44.793Z,3.90
2022-08-03T16:50:19.550Z,2.58
2022-08-03T16:52:49.409Z,3.63
2022-08-03T16:55:43.018Z,7.53
2022-08-03T16:58:06.841Z,2.22
2022-08-03T17:00:41.481Z,2.33
2022-08-03T17:03:25.535Z,4.13
2022-08-03T17:05:53.767Z,6.55
2022-08-03T17:08:29.917Z,5.07
2022-08-03T17:10:58.386Z,2.85
2022-08-03T17:13:38.757Z,2.80
2022-08-03T17:16:10.338Z,3.10
2022-08-03T17:18:42.066Z,3.05
2022-08-03T17:21:18.504Z,4.38
2022-08-03T17:23:58.371Z,2.55
2022-08-03T17:26:30.292Z,6.20
2022-08-03T17:29:12.603Z,2.15
2022-08-03T17:31:48.725Z,3.30
2022-08-03T17:34:18.833Z,3.42
2022-08-03T17:37:03.755Z,2.50
2022-08-03T17:39:58.225Z,3.45
2022-08-03T17:42:29.657Z,5.38
2022-08-03T17:45:01.964Z,5.20
2022-08-03T17:47:42.775Z,3.20
2022-08-03T17:50:24.174Z,3.90
2022-08-03T17:53:07.009Z,5.85
2022-08-03T17:55:56.878Z,2.72
2022-08-03T17:58:41.662Z,2.95
2022-08-03T18:02:02.021Z,3.78
2022-08-03T18:04:30.316Z,6.82
2022-08-03T18:07:11.192Z,3.95
2022-08-03T18:10:04.168Z,2.20
2022-08-03T18:12:45.145Z,5.50
2022-08-03T18:15:20.887Z,6.85
2022-08-03T18:17:55.552Z,3.45
2022-08-03T18:20:41.023Z,3.55
2022-08-03T18:23:20.420Z,4.05
2022-08-03T18:26:00.225Z,3.05
2022-08-03T18:28:30.493Z,3.35
2022-08-03T18:31:04.256Z,2.50
2022-08-03T18:34:20.338Z,6.10
2022-08-03T18:36:29.552Z,3.40
2022-08-03T18:39:02.556Z,3.28
2022-08-03T18:41:35.372Z,2.60
2022-08-03T18:44:38.108Z,5.40
2022-08-03T18:47:19.527Z,3.10
2022-08-03T18:49:58.602Z,4.03
2022-08-03T18:52:31.979Z,2.80
2022-08-03T18:55:19.845Z,4.00
2022-08-03T18:57:56.335Z,4.82
2022-08-03T19:00:42.372Z,4.20
2022-08-03T19:03:24.307Z,4.90
2022-08-03T19:06:06.358Z,4.18
2022-08-03T19:08:45.266Z,2.88
2022-08-03T19:11:22.665Z,5.13
2022-08-03T19:13:59.224Z,5.03
2022-08-03T19:16:32.822Z,2.35
2022-08-03T19:19:02.786Z,3.90
2022-08-03T19:21:31.363Z,3.35
2022-08-03T19:24:05.595Z,5.53
2022-08-03T19:26:41.300Z,4.35
2022-08-03T19:29:15.444Z,3.70
2022-08-03T19:31:59.506Z,3.63
2022-08-03T19:34:30.349Z,4.40
2022-08-03T19:37:04.215Z,2.15
2022-08-03T19:39:36.112Z,3.85
2022-08-03T19:42:20.101Z,4.32
2022-08-03T19:44:52.902Z,5.00
2022-08-03T19:47:28.978Z,4.25
2022-08-03T19:50:05.942Z,3.88
2022-08-03T19:52:43.930Z,3.17
2022-08-03T19:55:12.787Z,5.53
2022-08-03T19:57:44.086Z,2.83
2022-08-03T20:00:18.578Z,4.40
2022-08-03T20:02:50.751Z,3.13
2022-08-03T20:05:18.918Z,1.95
2022-08-03T20:07:48.628Z,5.57
2022-08-03T20:10:18.089Z,6.28
2022-08-03T20:12:47.127Z,5.72
2022-08-03T20:15:31.211Z,5.82
2022-08-03T20:18:04.451Z,7.55
2022-08-03T20:20:34.930Z,3.72
2022-08-03T20:23:07.204Z,3.70
2022-08-03T20:25:48.673Z,3.42
2022-08-03T20:28:27.231Z,4.72
2022-08-03T20:30:55.829Z,4.70
2022-08-03T20:33:27.575Z,4.72
2022-08-03T20:36:05.366Z,3.63
2022-08-03T20:38:34.793Z,3.15
2022-08-03T20:41:12.207Z,3.67
2022-08-03T20:46:41.710Z,4.22
2022-08-03T20:49:21.343Z,7.38
2022-08-03T20:51:53.586Z,6.00
2022-08-03T20:54:30.714Z,5.93
2022-08-03T20:57:03.722Z,6.25
2022-08-03T20:59:47.405Z,5.65
2022-08-03T21:02:29.067Z,7.22
2022-08-03T21:05:03.682Z,8.25
2022-08-03T21:08:03.686Z,7.50
2022-08-03T21:10:37.802Z,5.50
2022-08-03T21:13:16.755Z,6.53
2022-08-03T21:16:06.954Z,6.70
2022-08-03T21:18:42.501Z,4.25
2022-08-03T21:21:16.531Z,4.45
2022-08-03T21:23:48.044Z,6.85
2022-08-03T21:26:19.851Z,4.97
2022-08-03T21:31:32.886Z,5.82
2022-08-03T21:34:03.363Z,3.47
2022-08-03T21:36:35.162Z,5.80
2022-08-03T21:39:06.964Z,4.88
2022-08-03T21:41:36.170Z,3.30
2022-08-03T21:44:05.600Z,4.72
2022-08-03T21:46:36.849Z,6.05
2022-08-03T21:50:05.364Z,4.68
2022-08-03T21:52:00.224Z,6.28
2022-08-03T21:54:37.477Z,7.20
2022-08-03T21:57:10.033Z,5.57
2022-08-03T21:59:40.424Z,5.10
2022-08-03T22:02:22.454Z,5.28
2022-08-03T22:04:56.237Z,8.13
2022-08-03T22:07:28.959Z,8.02
2022-08-03T22:10:00.683Z,5.05
2022-08-03T22:12:32.252Z,4.88
2022-08-03T22:15:12.492Z,6.28
2022-08-03T22:17:55.959Z,7.43
2022-08-03T22:20:26.264Z,5.95
2022-08-03T22:23:02.193Z,5.80
2022-08-03T22:25:33.731Z,6.53
2022-08-03T22:28:04.160Z,6.55
2022-08-03T22:30:33.968Z,10.82
2022-08-03T22:33:04.023Z,5.05
2022-08-03T22:35:44.240Z,7.47
2022-08-03T22:38:18.620Z,4.43
2022-08-03T22:40:51.003Z,5.43
2022-08-03T22:43:24.918Z,3.17
2022-08-03T22:46:10.405Z,5.20
2022-08-03T22:48:41.727Z,5.38
2022-08-03T22:51:11.362Z,7.95
2022-08-03T22:53:41.676Z,5.53
2022-08-03T22:56:11.067Z,8.43
2022-08-03T22:58:39.754Z,5.65
2022-08-03T23:01:11.705Z,6.85
2022-08-03T23:04:00.508Z,3.72
2022-08-03T23:06:35.915Z,5.43
2022-08-03T23:09:08.915Z,4.75
2022-08-03T23:11:45.737Z,4.93
2022-08-03T23:14:16.510Z,3.80
2022-08-03T23:16:47.140Z,5.32
2022-08-03T23:19:25.395Z,6.40
2022-08-03T23:22:02.688Z,5.78
2022-08-03T23:24:37.039Z,5.97
2022-08-03T23:27:06.513Z,3.40
2022-08-03T23:29:36.567Z,7.13
2022-08-03T23:32:07.143Z,4.28
2022-08-03T23:34:53.399Z,6.45
2022-08-03T23:37:21.812Z,7.05
2022-08-03T23:39:53.080Z,7.15
2022-08-03T23:42:22.958Z,4.38
2022-08-03T23:47:46.820Z,4.45
2022-08-03T23:50:15.819Z,8.13
2022-08-03T23:52:52.787Z,5.15
2022-08-03T23:55:34.313Z,6.68
2022-08-03T23:58:11.046Z,5.80
